Time;durP1;ratioP1;P1;durP2;ratioP2;P2;SDS_P1;SDS_P2;PMS_P1;PMS_P2;Temp;Humidity;BMP_temperature;BMP_pressure;BME280_temperature;BME280_humidity;BME280_pressure;Samples;Min_cycle;Max_cycle;Signal;HPM_P1;HPM_P2
2022/01/30 00:00:13;;;;;;;13.05;2.30;;;;;;;;;;4992254;28;20392;-39
2022/01/30 00:02:40;;;;;;;14.60;2.35;;;;;;;;;;4989688;28;20022;-40
2022/01/30 00:05:07;;;;;;;19.00;2.70;;;;;;;;;;4991003;28;20579;-39
2022/01/30 00:07:35;;;;;;;11.35;2.40;;;;;;;;;;4990088;28;20034;-39
2022/01/30 00:10:02;;;;;;;12.27;2.13;;;;;;;;;;4985709;28;20057;-39
2022/01/30 00:12:41;;;;;;;13.35;2.40;;;;;;;;;;4989351;28;20373;-40
2022/01/30 00:15:09;;;;;;;14.82;2.65;;;;;;;;;;4989071;28;20081;-39
2022/01/30 00:17:43;;;;;;;13.77;2.60;;;;;;;;;;4975478;28;20031;-40
2022/01/30 00:20:24;;;;;;;12.02;2.20;;;;;;;;;;4988111;28;20047;-39
2022/01/30 00:23:09;;;;;;;10.20;2.17;;;;;;;;;;4989266;28;20125;-40
2022/01/30 00:26:10;;;;;;;11.23;2.38;;;;;;;;;;4988471;28;20401;-38
2022/01/30 00:28:32;;;;;;;9.32;2.08;;;;;;;;;;4982944;28;20053;-39
2022/01/30 00:30:59;;;;;;;8.77;2.00;;;;;;;;;;4988464;28;20046;-39
2022/01/30 00:33:26;;;;;;;8.35;2.03;;;;;;;;;;4989148;28;20084;-39
2022/01/30 00:35:53;;;;;;;9.15;2.05;;;;;;;;;;4988558;28;20694;-39
2022/01/30 00:38:22;;;;;;;13.15;2.15;;;;;;;;;;4989291;28;20030;-39
2022/01/30 00:40:50;;;;;;;9.88;2.47;;;;;;;;;;4989225;28;20038;-39
2022/01/30 00:43:18;;;;;;;8.48;2.05;;;;;;;;;;4974809;28;20054;-39
2022/01/30 00:45:45;;;;;;;10.57;1.85;;;;;;;;;;4989472;28;20053;-39
2022/01/30 00:48:12;;;;;;;6.50;1.90;;;;;;;;;;4988688;28;20026;-39
2022/01/30 00:50:40;;;;;;;8.98;2.05;;;;;;;;;;4989565;28;20061;-39
2022/01/30 00:53:07;;;;;;;8.48;2.15;;;;;;;;;;4981917;28;20034;-39
2022/01/30 00:55:34;;;;;;;6.60;1.70;;;;;;;;;;4954473;28;20047;-40
2022/01/30 00:58:02;;;;;;;6.78;1.80;;;;;;;;;;4971704;28;20030;-39
2022/01/30 01:00:29;;;;;;;5.97;1.50;;;;;;;;;;4972183;28;20547;-38
2022/01/30 01:02:56;;;;;;;6.35;1.60;;;;;;;;;;4973572;28;20094;-37
2022/01/30 01:05:24;;;;;;;6.35;1.60;;;;;;;;;;4972078;28;20037;-37
2022/01/30 01:07:54;;;;;;;4.43;1.60;;;;;;;;;;4971952;28;20067;-38
2022/01/30 01:10:32;;;;;;;4.95;1.63;;;;;;;;;;4974258;28;20042;-38
2022/01/30 01:23:54;;;;;;;5.72;2.63;;;;;;;;;;4989724;28;20049;-37
2022/01/30 01:26:22;;;;;;;8.75;3.13;;;;;;;;;;4989568;28;20035;-38
2022/01/30 01:28:49;;;;;;;8.93;3.90;;;;;;;;;;4987238;28;20101;-38
2022/01/30 01:31:16;;;;;;;8.45;4.25;;;;;;;;;;4991550;28;20424;-38
2022/01/30 01:36:29;;;;;;;14.02;6.68;;;;;;;;;;4988253;28;20085;-38
2022/01/30 01:38:56;;;;;;;16.38;7.00;;;;;;;;;;4991029;28;20034;-37
2022/01/30 01:41:25;;;;;;;14.10;7.35;;;;;;;;;;4990482;28;20049;-37
2022/01/30 01:43:52;;;;;;;14.13;6.05;;;;;;;;;;4991503;28;20042;-37
2022/01/30 01:46:27;;;;;;;14.68;6.30;;;;;;;;;;4990598;28;20033;-37
2022/01/30 01:48:55;;;;;;;10.43;5.35;;;;;;;;;;4991087;28;20046;-37
2022/01/30 01:51:23;;;;;;;11.60;5.57;;;;;;;;;;4991279;28;20026;-38
2022/01/30 01:53:51;;;;;;;10.02;5.20;;;;;;;;;;4990763;28;20061;-37
2022/01/30 01:56:19;;;;;;;7.38;3.95;;;;;;;;;;4990760;28;20784;-37
2022/01/30 01:58:46;;;;;;;9.25;4.50;;;;;;;;;;4989943;28;20157;-38
2022/01/30 02:01:13;;;;;;;7.55;3.67;;;;;;;;;;4989024;28;20026;-37
2022/01/30 02:03:41;;;;;;;5.72;2.92;;;;;;;;;;4990866;28;20081;-38
2022/01/30 02:06:12;;;;;;;8.10;3.25;;;;;;;;;;4988662;28;20392;-39
2022/01/30 02:08:47;;;;;;;4.45;2.33;;;;;;;;;;4987211;28;20058;-37
2022/01/30 02:11:27;;;;;;;4.53;2.20;;;;;;;;;;4979485;28;20850;-37
2022/01/30 02:24:50;;;;;;;7.35;2.95;;;;;;;;;;4989294;28;20041;-38
2022/01/30 02:27:20;;;;;;;6.80;2.20;;;;;;;;;;4989438;28;20141;-37
2022/01/30 02:29:47;;;;;;;7.90;2.20;;;;;;;;;;4989575;28;20045;-37
2022/01/30 02:32:14;;;;;;;9.88;2.08;;;;;;;;;;4989258;28;20031;-37
2022/01/30 02:34:42;;;;;;;7.68;2.05;;;;;;;;;;4989953;28;20037;-37
2022/01/30 02:37:09;;;;;;;7.53;2.35;;;;;;;;;;4988417;28;20455;-37
2022/01/30 02:39:36;;;;;;;5.40;1.83;;;;;;;;;;4989099;28;20030;-37
2022/01/30 02:42:03;;;;;;;5.43;1.60;;;;;;;;;;4989965;28;20084;-38
2022/01/30 02:44:46;;;;;;;6.93;1.83;;;;;;;;;;4994076;28;20030;-37
2022/01/30 02:47:36;;;;;;;8.57;1.90;;;;;;;;;;4992068;28;20038;-38
2022/01/30 02:52:55;;;;;;;4.40;1.58;;;;;;;;;;4990840;28;20130;-38
2022/01/30 02:55:22;;;;;;;4.78;1.50;;;;;;;;;;4993040;28;20053;-37
2022/01/30 02:57:49;;;;;;;6.47;1.65;;;;;;;;;;4992764;28;20045;-38
2022/01/30 03:00:16;;;;;;;4.38;1.70;;;;;;;;;;4992414;28;20108;-38
2022/01/30 03:02:43;;;;;;;5.28;1.58;;;;;;;;;;4993138;28;20145;-38
2022/01/30 03:05:10;;;;;;;8.88;1.90;;;;;;;;;;4991945;28;20116;-38
2022/01/30 03:07:38;;;;;;;5.68;1.58;;;;;;;;;;4992834;28;20037;-37
2022/01/30 03:10:05;;;;;;;2.97;1.20;;;;;;;;;;4992600;28;20037;-38
2022/01/30 03:12:32;;;;;;;4.40;1.30;;;;;;;;;;4992197;28;20493;-38
2022/01/30 03:14:59;;;;;;;5.35;1.83;;;;;;;;;;4993020;28;20089;-38
2022/01/30 03:17:26;;;;;;;4.38;1.40;;;;;;;;;;4991660;28;20026;-38
2022/01/30 03:19:53;;;;;;;5.38;1.50;;;;;;;;;;4943325;23;20054;-31
2022/01/30 03:22:20;;;;;;;3.67;1.20;;;;;;;;;;4983425;28;20038;-31
2022/01/30 03:24:47;;;;;;;8.02;1.40;;;;;;;;;;4981636;28;20483;-31
2022/01/30 03:27:14;;;;;;;8.57;1.20;;;;;;;;;;4982778;28;20113;-31
2022/01/30 03:29:49;;;;;;;8.05;1.70;;;;;;;;;;4981999;28;20030;-30
2022/01/30 03:32:16;;;;;;;6.43;1.40;;;;;;;;;;4980548;28;20198;-31
2022/01/30 03:34:43;;;;;;;4.45;1.05;;;;;;;;;;4981557;28;20109;-31
2022/01/30 03:37:14;;;;;;;5.30;1.20;;;;;;;;;;4982160;28;20046;-34
2022/01/30 03:39:41;;;;;;;7.22;0.98;;;;;;;;;;4985287;28;20070;-38
2022/01/30 03:42:08;;;;;;;6.85;1.20;;;;;;;;;;4975940;28;20038;-31
2022/01/30 03:44:35;;;;;;;3.92;0.88;;;;;;;;;;4980545;28;20038;-31
2022/01/30 03:47:02;;;;;;;5.95;1.15;;;;;;;;;;4980243;28;20027;-32
2022/01/30 03:49:29;;;;;;;8.60;1.20;;;;;;;;;;4981278;28;20137;-32
2022/01/30 03:51:56;;;;;;;5.35;1.08;;;;;;;;;;4975669;28;20035;-33
2022/01/30 03:54:23;;;;;;;5.57;1.10;;;;;;;;;;4977199;28;20030;-33
2022/01/30 03:56:50;;;;;;;6.05;1.05;;;;;;;;;;4987930;28;20033;-33
2022/01/30 03:59:17;;;;;;;4.70;1.05;;;;;;;;;;4977469;28;20053;-33
2022/01/30 04:01:44;;;;;;;3.72;1.00;;;;;;;;;;4974716;28;20144;-33
2022/01/30 04:04:11;;;;;;;2.65;0.80;;;;;;;;;;4975442;28;20027;-33
2022/01/30 04:06:38;;;;;;;4.15;1.05;;;;;;;;;;4975542;28;20023;-34
2022/01/30 04:09:05;;;;;;;3.30;1.05;;;;;;;;;;4974796;28;20035;-33
2022/01/30 04:11:32;;;;;;;5.65;1.20;;;;;;;;;;4975317;28;20037;-33
2022/01/30 04:14:00;;;;;;;2.50;0.98;;;;;;;;;;4975079;28;20137;-34
2022/01/30 04:16:27;;;;;;;3.50;0.70;;;;;;;;;;4974830;28;20027;-33
2022/01/30 04:18:54;;;;;;;4.35;1.00;;;;;;;;;;4975030;28;20050;-33
2022/01/30 04:21:21;;;;;;;9.40;1.10;;;;;;;;;;4974997;28;20209;-33
2022/01/30 04:23:48;;;;;;;5.28;1.00;;;;;;;;;;4981292;28;20026;-33
2022/01/30 04:26:15;;;;;;;2.85;0.65;;;;;;;;;;4983712;28;20026;-33
2022/01/30 04:28:42;;;;;;;3.03;0.70;;;;;;;;;;4988922;28;20034;-32
2022/01/30 04:31:09;;;;;;;8.93;0.85;;;;;;;;;;4983680;28;20022;-33
2022/01/30 04:33:36;;;;;;;3.95;0.63;;;;;;;;;;4981317;28;20026;-33
2022/01/30 04:36:08;;;;;;;2.75;0.80;;;;;;;;;;4982486;28;20042;-33
2022/01/30 04:38:55;;;;;;;7.90;3.17;;;;;;;;;;4982867;28;20041;-32
2022/01/30 04:58:25;;;;;;;11.07;1.60;;;;;;;;;;4991917;28;20108;-32
2022/01/30 05:06:05;;;;;;;8.57;1.58;;;;;;;;;;4986642;28;20038;-32
2022/01/30 05:08:33;;;;;;;9.67;1.17;;;;;;;;;;4979688;28;20034;-32
2022/01/30 05:11:06;;;;;;;5.32;1.05;;;;;;;;;;4980475;28;20034;-32
2022/01/30 05:13:37;;;;;;;11.18;1.40;;;;;;;;;;4984865;28;20042;-32
2022/01/30 05:16:04;;;;;;;6.05;1.35;;;;;;;;;;4982705;28;20050;-32
2022/01/30 05:18:31;;;;;;;4.68;1.13;;;;;;;;;;4981494;28;20457;-32
2022/01/30 05:20:58;;;;;;;11.18;1.48;;;;;;;;;;4985068;28;20034;-32
2022/01/30 05:23:25;;;;;;;10.82;1.23;;;;;;;;;;4982409;28;20035;-32
2022/01/30 05:25:53;;;;;;;5.78;1.20;;;;;;;;;;4981498;28;20052;-31
2022/01/30 05:28:25;;;;;;;10.63;1.60;;;;;;;;;;4983193;28;20030;-32
2022/01/30 05:30:52;;;;;;;10.07;1.43;;;;;;;;;;4983240;28;20413;-32
2022/01/30 05:33:19;;;;;;;10.32;2.33;;;;;;;;;;4981507;28;20027;-32
2022/01/30 05:35:46;;;;;;;10.65;2.13;;;;;;;;;;4982503;28;20058;-32
2022/01/30 05:38:13;;;;;;;9.13;2.50;;;;;;;;;;4983309;28;20481;-32
2022/01/30 05:40:40;;;;;;;10.63;1.85;;;;;;;;;;4983473;28;20032;-32
2022/01/30 05:43:07;;;;;;;6.82;1.63;;;;;;;;;;4991141;28;20035;-32
2022/01/30 05:45:38;;;;;;;5.40;1.20;;;;;;;;;;4992682;28;20108;-32
2022/01/30 05:48:15;;;;;;;4.65;1.30;;;;;;;;;;4992541;28;20046;-32
2022/01/30 05:50:43;;;;;;;4.85;1.17;;;;;;;;;;4992538;28;20030;-32
2022/01/30 05:53:11;;;;;;;4.47;1.00;;;;;;;;;;4992636;28;20547;-32
2022/01/30 05:55:38;;;;;;;6.07;1.00;;;;;;;;;;4992513;28;20484;-32
2022/01/30 05:58:05;;;;;;;4.50;1.10;;;;;;;;;;4992575;28;20034;-31
2022/01/30 06:00:32;;;;;;;10.30;1.00;;;;;;;;;;4992540;28;20022;-31
2022/01/30 06:02:59;;;;;;;4.13;1.15;;;;;;;;;;4992569;28;20033;-32
2022/01/30 06:05:26;;;;;;;3.55;1.40;;;;;;;;;;4992470;28;20153;-32
2022/01/30 06:07:57;;;;;;;3.97;1.23;;;;;;;;;;4992633;28;20039;-31
2022/01/30 06:10:25;;;;;;;9.80;1.30;;;;;;;;;;4992435;28;20476;-32
2022/01/30 06:12:53;;;;;;;5.88;1.08;;;;;;;;;;4992486;28;20566;-31
2022/01/30 06:15:20;;;;;;;5.63;1.42;;;;;;;;;;4992354;28;20062;-32
2022/01/30 06:17:47;;;;;;;5.97;1.20;;;;;;;;;;4991908;28;20030;-32
2022/01/30 06:20:14;;;;;;;9.43;1.25;;;;;;;;;;4992229;28;20101;-32
2022/01/30 06:22:41;;;;;;;7.78;1.17;;;;;;;;;;4992333;28;20113;-31
2022/01/30 06:25:09;;;;;;;5.65;1.27;;;;;;;;;;4992239;28;20197;-31
2022/01/30 06:27:36;;;;;;;4.05;0.80;;;;;;;;;;4992269;28;20037;-31
2022/01/30 06:30:06;;;;;;;5.57;1.30;;;;;;;;;;4992174;28;20031;-31
2022/01/30 06:32:33;;;;;;;5.15;1.15;;;;;;;;;;4992138;28;20477;-31
2022/01/30 06:35:01;;;;;;;6.25;1.00;;;;;;;;;;4992126;28;20057;-32
2022/01/30 06:37:28;;;;;;;4.15;1.35;;;;;;;;;;4992386;28;20035;-32
2022/01/30 06:39:55;;;;;;;7.75;1.10;;;;;;;;;;4992077;28;20029;-31
2022/01/30 06:42:22;;;;;;;4.13;1.23;;;;;;;;;;4992116;28;20118;-31
2022/01/30 06:44:50;;;;;;;6.88;1.40;;;;;;;;;;4992029;28;20034;-31
2022/01/30 06:47:17;;;;;;;5.45;1.10;;;;;;;;;;4992083;28;20030;-32
2022/01/30 06:49:44;;;;;;;7.18;1.60;;;;;;;;;;4991977;28;20393;-32
2022/01/30 06:52:11;;;;;;;5.95;1.10;;;;;;;;;;4992075;28;20109;-32
2022/01/30 06:54:38;;;;;;;5.65;1.70;;;;;;;;;;4992248;28;20038;-31
2022/01/30 06:57:06;;;;;;;7.32;1.35;;;;;;;;;;4991982;28;20488;-32
2022/01/30 06:59:33;;;;;;;3.80;1.10;;;;;;;;;;4991894;28;20393;-32
2022/01/30 07:02:00;;;;;;;12.23;1.60;;;;;;;;;;4991990;28;20034;-32
2022/01/30 07:04:27;;;;;;;4.97;1.42;;;;;;;;;;4991951;28;20491;-31
2022/01/30 07:06:54;;;;;;;4.75;1.30;;;;;;;;;;4991973;28;20023;-31
2022/01/30 07:09:22;;;;;;;9.32;1.40;;;;;;;;;;4991828;28;20044;-31
2022/01/30 07:11:49;;;;;;;9.48;1.73;;;;;;;;;;4991863;28;20042;-32
2022/01/30 07:14:16;;;;;;;7.85;1.75;;;;;;;;;;4991724;28;20034;-31
2022/01/30 07:16:43;;;;;;;8.88;1.75;;;;;;;;;;4991881;28;20480;-32
2022/01/30 07:19:10;;;;;;;6.43;1.70;;;;;;;;;;4991605;28;20049;-32
2022/01/30 07:21:37;;;;;;;8.90;1.95;;;;;;;;;;4991796;28;20026;-32
2022/01/30 07:24:04;;;;;;;8.43;2.60;;;;;;;;;;4991809;28;20060;-32
2022/01/30 07:26:32;;;;;;;8.98;3.30;;;;;;;;;;4991764;28;20026;-32
2022/01/30 07:29:00;;;;;;;14.48;3.55;;;;;;;;;;4991623;28;20034;-32
2022/01/30 07:31:27;;;;;;;7.28;2.30;;;;;;;;;;4994332;28;20164;-32
2022/01/30 07:33:54;;;;;;;10.07;1.83;;;;;;;;;;4995165;28;20487;-31
2022/01/30 07:36:21;;;;;;;3.03;1.27;;;;;;;;;;4995083;28;20034;-32
2022/01/30 07:38:48;;;;;;;13.57;1.48;;;;;;;;;;4994931;28;20045;-32
2022/01/30 07:41:15;;;;;;;3.72;1.10;;;;;;;;;;4995041;28;20503;-32
2022/01/30 07:43:42;;;;;;;3.92;0.93;;;;;;;;;;4995005;28;20743;-32
2022/01/30 07:46:09;;;;;;;5.35;0.90;;;;;;;;;;4994955;28;20034;-31
2022/01/30 07:48:36;;;;;;;4.75;0.98;;;;;;;;;;4994818;28;20496;-32
2022/01/30 07:51:03;;;;;;;5.15;0.93;;;;;;;;;;4994808;28;20062;-32
2022/01/30 07:53:30;;;;;;;3.95;1.33;;;;;;;;;;4994814;28;20022;-32
2022/01/30 07:55:58;;;;;;;6.13;1.02;;;;;;;;;;4994694;28;20026;-32
2022/01/30 07:58:25;;;;;;;2.90;0.90;;;;;;;;;;4994617;28;20038;-32
2022/01/30 08:00:52;;;;;;;5.57;1.05;;;;;;;;;;4994600;28;20026;-32
2022/01/30 08:03:19;;;;;;;2.92;1.00;;;;;;;;;;4994716;28;20035;-31
2022/01/30 08:05:46;;;;;;;3.75;1.02;;;;;;;;;;4994661;28;20034;-32
2022/01/30 08:08:13;;;;;;;3.90;1.20;;;;;;;;;;4994481;28;20034;-32
2022/01/30 08:10:40;;;;;;;1.92;0.80;;;;;;;;;;4994531;28;20536;-32
2022/01/30 08:13:07;;;;;;;2.35;0.80;;;;;;;;;;4994351;28;20036;-32
2022/01/30 08:15:34;;;;;;;4.57;1.20;;;;;;;;;;4994394;28;20034;-32
2022/01/30 08:18:01;;;;;;;3.08;1.00;;;;;;;;;;4994253;28;20050;-31
2022/01/30 08:20:29;;;;;;;3.85;0.80;;;;;;;;;;4994188;28;20050;-31
2022/01/30 08:22:56;;;;;;;2.15;0.80;;;;;;;;;;4994249;28;20095;-31
2022/01/30 08:25:25;;;;;;;1.48;0.68;;;;;;;;;;4994135;28;20037;-32
2022/01/30 08:27:53;;;;;;;4.90;0.80;;;;;;;;;;4993987;28;20030;-32
2022/01/30 08:30:20;;;;;;;1.80;0.70;;;;;;;;;;4994154;28;20029;-32
2022/01/30 08:32:49;;;;;;;1.80;0.68;;;;;;;;;;4994118;28;20026;-32
2022/01/30 08:35:16;;;;;;;6.90;3.50;;;;;;;;;;4993969;28;20124;-32
2022/01/30 08:37:44;;;;;;;6.10;3.30;;;;;;;;;;4993871;28;20026;-31
2022/01/30 08:40:12;;;;;;;3.53;1.40;;;;;;;;;;4993920;28;20038;-31
2022/01/30 08:42:39;;;;;;;3.05;1.23;;;;;;;;;;4993631;28;20037;-31
2022/01/30 08:45:08;;;;;;;5.88;1.17;;;;;;;;;;4993928;28;20108;-31
2022/01/30 08:47:35;;;;;;;2.88;0.93;;;;;;;;;;4993625;28;20034;-32
2022/01/30 08:50:03;;;;;;;5.28;1.40;;;;;;;;;;4993759;28;20074;-31
2022/01/30 08:52:30;;;;;;;3.50;1.70;;;;;;;;;;4993766;28;20030;-32
2022/01/30 08:54:57;;;;;;;2.13;1.23;;;;;;;;;;4993721;28;20057;-31
2022/01/30 08:57:24;;;;;;;1.30;0.65;;;;;;;;;;4993915;28;20443;-31
2022/01/30 08:59:51;;;;;;;2.03;0.57;;;;;;;;;;4993514;28;20030;-31
2022/01/30 09:02:19;;;;;;;2.30;0.77;;;;;;;;;;4993472;28;20034;-31
2022/01/30 09:04:46;;;;;;;2.55;0.88;;;;;;;;;;4993450;28;20038;-31
2022/01/30 09:07:13;;;;;;;3.42;0.60;;;;;;;;;;4993401;28;20033;-31
2022/01/30 09:09:40;;;;;;;3.20;0.65;;;;;;;;;;4993295;28;20038;-32
2022/01/30 09:12:07;;;;;;;2.85;0.85;;;;;;;;;;4993410;28;20049;-31
2022/01/30 09:14:36;;;;;;;3.00;1.50;;;;;;;;;;4993291;28;20026;-31
2022/01/30 09:17:03;;;;;;;5.15;1.90;;;;;;;;;;4993365;28;20042;-31
2022/01/30 09:19:30;;;;;;;4.25;1.70;;;;;;;;;;4992937;28;20058;-32
2022/01/30 09:21:57;;;;;;;3.70;1.33;;;;;;;;;;4993223;28;20030;-31
2022/01/30 09:24:24;;;;;;;6.28;1.60;;;;;;;;;;4993157;28;20034;-31
2022/01/30 09:26:51;;;;;;;2.40;1.00;;;;;;;;;;4991774;28;20487;-32
2022/01/30 09:29:18;;;;;;;2.95;1.00;;;;;;;;;;4993015;28;20026;-31
2022/01/30 09:31:45;;;;;;;1.83;0.90;;;;;;;;;;4993023;28;20707;-32
2022/01/30 09:34:12;;;;;;;1.55;0.90;;;;;;;;;;4992910;28;20031;-31
2022/01/30 09:36:39;;;;;;;3.08;0.95;;;;;;;;;;4992924;28;20396;-32
2022/01/30 09:39:06;;;;;;;2.45;1.17;;;;;;;;;;4992756;28;20104;-32
2022/01/30 09:41:35;;;;;;;2.10;0.82;;;;;;;;;;4992902;28;20097;-32
2022/01/30 09:44:02;;;;;;;2.08;0.90;;;;;;;;;;4992787;28;20600;-31
2022/01/30 09:46:37;;;;;;;2.33;0.88;;;;;;;;;;4992732;28;20027;-31
2022/01/30 09:49:04;;;;;;;2.88;0.80;;;;;;;;;;4992569;28;20062;-31
2022/01/30 09:51:31;;;;;;;3.35;0.60;;;;;;;;;;4992782;28;20037;-31
2022/01/30 09:53:59;;;;;;;1.30;0.55;;;;;;;;;;4992132;28;20026;-31
2022/01/30 09:56:26;;;;;;;2.20;0.63;;;;;;;;;;4992495;28;20049;-31
2022/01/30 09:58:53;;;;;;;3.05;0.85;;;;;;;;;;4992498;28;20041;-31
2022/01/30 10:01:20;;;;;;;5.28;0.80;;;;;;;;;;4992478;28;20034;-31
2022/01/30 10:03:50;;;;;;;4.63;0.90;;;;;;;;;;4992569;28;20026;-31
2022/01/30 10:06:21;;;;;;;4.13;1.00;;;;;;;;;;4992543;28;20026;-31
2022/01/30 10:08:54;;;;;;;3.80;1.08;;;;;;;;;;4992352;28;20034;-31
2022/01/30 10:11:33;;;;;;;4.63;1.23;;;;;;;;;;4992452;28;20084;-31
2022/01/30 10:14:04;;;;;;;2.85;1.00;;;;;;;;;;4992257;28;20092;-31
2022/01/30 10:16:38;;;;;;;2.03;0.77;;;;;;;;;;4992465;28;20519;-31
2022/01/30 10:19:12;;;;;;;1.90;0.85;;;;;;;;;;4992068;28;20092;-32
2022/01/30 10:21:40;;;;;;;4.00;0.68;;;;;;;;;;4992395;28;20056;-31
2022/01/30 10:24:40;;;;;;;2.65;0.65;;;;;;;;;;4992367;28;20053;-31
2022/01/30 10:27:23;;;;;;;2.78;0.80;;;;;;;;;;4950417;28;20056;-31
2022/01/30 10:29:58;;;;;;;4.38;0.90;;;;;;;;;;4992289;28;20080;-31
2022/01/30 10:32:26;;;;;;;2.03;0.70;;;;;;;;;;4992254;28;20041;-31
2022/01/30 10:35:00;;;;;;;4.00;0.80;;;;;;;;;;4992139;28;20082;-31
2022/01/30 10:37:27;;;;;;;1.92;0.75;;;;;;;;;;4992046;28;20181;-32
2022/01/30 10:40:14;;;;;;;4.68;0.70;;;;;;;;;;4992214;28;20113;-32
2022/01/30 10:42:42;;;;;;;5.43;0.80;;;;;;;;;;4992437;28;20037;-32
2022/01/30 10:45:09;;;;;;;3.60;0.70;;;;;;;;;;4992110;28;20045;-32
2022/01/30 10:47:37;;;;;;;3.17;0.80;;;;;;;;;;4992109;28;20030;-32
2022/01/30 10:50:15;;;;;;;3.25;0.68;;;;;;;;;;4992126;28;20040;-31
2022/01/30 10:52:48;;;;;;;9.48;1.17;;;;;;;;;;4992069;28;20499;-32
2022/01/30 10:55:15;;;;;;;1.67;0.70;;;;;;;;;;4992087;28;20053;-32
2022/01/30 10:57:42;;;;;;;2.25;0.65;;;;;;;;;;4992027;28;20807;-32
2022/01/30 11:00:09;;;;;;;5.43;0.80;;;;;;;;;;4992074;28;20026;-32
2022/01/30 11:02:41;;;;;;;2.13;0.75;;;;;;;;;;4992037;28;20026;-32
2022/01/30 11:05:13;;;;;;;2.42;0.70;;;;;;;;;;4994522;28;20127;-32
2022/01/30 11:07:40;;;;;;;4.88;0.80;;;;;;;;;;4995609;28;20503;-32
2022/01/30 11:10:19;;;;;;;3.38;0.75;;;;;;;;;;4996004;28;20049;-32
2022/01/30 11:12:56;;;;;;;2.45;0.60;;;;;;;;;;4995642;28;20113;-32
2022/01/30 11:17:51;;;;;;;4.57;0.60;;;;;;;;;;4995484;28;20038;-32
2022/01/30 11:20:18;;;;;;;8.82;0.70;;;;;;;;;;4995375;28;20046;-32
2022/01/30 11:22:48;;;;;;;4.85;0.60;;;;;;;;;;4995496;28;20492;-32
2022/01/30 11:25:16;;;;;;;4.30;0.80;;;;;;;;;;4995395;28;20102;-32
2022/01/30 11:27:46;;;;;;;2.75;0.70;;;;;;;;;;4994608;28;20088;-32
2022/01/30 11:30:15;;;;;;;2.85;0.80;;;;;;;;;;4995694;28;20034;-32
2022/01/30 11:32:42;;;;;;;4.20;0.70;;;;;;;;;;4995254;28;20373;-32
2022/01/30 11:35:10;;;;;;;4.43;0.65;;;;;;;;;;4995135;28;20074;-32
2022/01/30 11:37:38;;;;;;;4.70;0.73;;;;;;;;;;4995001;28;20484;-32
2022/01/30 11:40:12;;;;;;;4.25;0.70;;;;;;;;;;4995177;28;20489;-32
2022/01/30 11:42:47;;;;;;;4.72;0.60;;;;;;;;;;4995118;28;20026;-32
2022/01/30 11:45:17;;;;;;;6.10;0.80;;;;;;;;;;4995063;28;20042;-32
2022/01/30 11:47:45;;;;;;;6.30;0.50;;;;;;;;;;4994829;28;20041;-32
2022/01/30 11:50:12;;;;;;;8.32;0.95;;;;;;;;;;4995029;28;20031;-32
2022/01/30 11:52:57;;;;;;;6.00;0.70;;;;;;;;;;4994980;28;20034;-32
2022/01/30 11:55:43;;;;;;;2.20;0.82;;;;;;;;;;4994746;28;20435;-32
2022/01/30 11:58:28;;;;;;;4.68;0.70;;;;;;;;;;4994666;28;20046;-32
2022/01/30 12:00:55;;;;;;;4.35;1.10;;;;;;;;;;4994787;28;20061;-32
2022/01/30 12:03:22;;;;;;;5.47;0.80;;;;;;;;;;4993416;28;20488;-32
2022/01/30 12:05:49;;;;;;;4.20;0.88;;;;;;;;;;4994666;28;20164;-32
2022/01/30 12:08:34;;;;;;;3.42;0.65;;;;;;;;;;4994511;28;20034;-32
2022/01/30 12:11:01;;;;;;;2.33;0.70;;;;;;;;;;4994661;28;20097;-32
2022/01/30 12:13:44;;;;;;;2.92;0.90;;;;;;;;;;4994552;28;20030;-32
2022/01/30 12:16:29;;;;;;;4.93;0.88;;;;;;;;;;4993740;28;20093;-32
2022/01/30 12:18:56;;;;;;;4.70;0.88;;;;;;;;;;4994171;28;20121;-32
2022/01/30 12:21:27;;;;;;;5.82;0.73;;;;;;;;;;4994385;28;20030;-32
2022/01/30 12:23:54;;;;;;;8.43;1.08;;;;;;;;;;4994308;28;20034;-32
2022/01/30 12:26:21;;;;;;;2.70;0.73;;;;;;;;;;4994380;28;20030;-32
2022/01/30 12:28:52;;;;;;;3.92;0.90;;;;;;;;;;4994162;28;20106;-32
2022/01/30 12:31:25;;;;;;;1.48;0.77;;;;;;;;;;4994246;28;20025;-32
2022/01/30 12:34:08;;;;;;;5.07;0.80;;;;;;;;;;4994198;28;20555;-32
2022/01/30 12:36:36;;;;;;;9.27;1.13;;;;;;;;;;4994126;28;20045;-32
2022/01/30 12:39:08;;;;;;;4.22;0.68;;;;;;;;;;4994069;28;20113;-32
2022/01/30 12:41:36;;;;;;;3.20;0.60;;;;;;;;;;4994207;28;20389;-32
2022/01/30 12:44:07;;;;;;;3.15;0.90;;;;;;;;;;4994226;28;20029;-32
2022/01/30 12:46:37;;;;;;;7.70;0.80;;;;;;;;;;4994142;28;20031;-32
2022/01/30 12:49:04;;;;;;;3.38;0.93;;;;;;;;;;4993890;28;20157;-32
2022/01/30 12:51:31;;;;;;;2.95;0.70;;;;;;;;;;4993868;28;20499;-32
2022/01/30 12:53:58;;;;;;;4.35;0.77;;;;;;;;;;4993892;28;20022;-32
2022/01/30 12:56:27;;;;;;;2.33;0.70;;;;;;;;;;4994068;28;20591;-32
2022/01/30 12:58:59;;;;;;;4.18;0.98;;;;;;;;;;4993605;28;20435;-32
2022/01/30 13:01:27;;;;;;;1.65;0.60;;;;;;;;;;4993987;28;20060;-32
2022/01/30 13:04:04;;;;;;;7.32;1.00;;;;;;;;;;4993607;28;20113;-32
2022/01/30 13:06:33;;;;;;;5.07;1.00;;;;;;;;;;4993596;28;20097;-32
2022/01/30 13:09:00;;;;;;;4.00;0.80;;;;;;;;;;4993377;28;20061;-32
2022/01/30 13:11:27;;;;;;;4.35;0.80;;;;;;;;;;4993594;28;20023;-32
2022/01/30 13:13:55;;;;;;;7.28;0.90;;;;;;;;;;4993484;28;20030;-32
2022/01/30 13:16:26;;;;;;;4.32;0.75;;;;;;;;;;4993340;28;20132;-32
2022/01/30 13:18:53;;;;;;;5.40;0.70;;;;;;;;;;4993091;28;20069;-32
2022/01/30 13:21:24;;;;;;;4.30;1.40;;;;;;;;;;4993419;28;20026;-32
2022/01/30 13:23:51;;;;;;;5.00;0.75;;;;;;;;;;4993277;28;20392;-33
2022/01/30 13:26:34;;;;;;;11.77;0.73;;;;;;;;;;4993286;28;20173;-32
2022/01/30 13:29:01;;;;;;;2.67;0.90;;;;;;;;;;4992167;28;20039;-32
2022/01/30 13:31:31;;;;;;;6.00;0.90;;;;;;;;;;4993087;28;20022;-32
2022/01/30 13:34:36;;;;;;;6.38;0.90;;;;;;;;;;4993045;28;20504;-32
2022/01/30 13:37:07;;;;;;;6.38;0.95;;;;;;;;;;4913840;29;20040;-32
2022/01/30 13:39:41;;;;;;;6.00;0.77;;;;;;;;;;4914077;29;20038;-32
2022/01/30 13:48:01;;;;;;;3.10;0.82;;;;;;;;;;4992983;28;20030;-32
2022/01/30 13:50:28;;;;;;;6.72;1.13;;;;;;;;;;4992806;28;20018;-32
2022/01/30 13:53:07;;;;;;;6.10;1.05;;;;;;;;;;4992746;28;20022;-32
2022/01/30 13:55:35;;;;;;;6.25;1.20;;;;;;;;;;4992621;28;20047;-32
2022/01/30 13:58:03;;;;;;;7.57;1.23;;;;;;;;;;4992619;28;20037;-32
2022/01/30 14:00:35;;;;;;;14.30;1.20;;;;;;;;;;4992161;28;20037;-32
2022/01/30 14:03:03;;;;;;;9.38;1.25;;;;;;;;;;4992828;28;20480;-32
2022/01/30 14:05:30;;;;;;;7.25;1.13;;;;;;;;;;4992688;28;20038;-32
2022/01/30 14:07:58;;;;;;;7.95;1.35;;;;;;;;;;4992439;28;20492;-32
2022/01/30 14:10:30;;;;;;;13.02;1.65;;;;;;;;;;4992593;28;20086;-32
2022/01/30 14:13:02;;;;;;;8.57;1.15;;;;;;;;;;4992759;28;20038;-32
2022/01/30 14:15:29;;;;;;;4.63;0.75;;;;;;;;;;4992339;28;20121;-32
2022/01/30 14:18:17;;;;;;;9.88;1.00;;;;;;;;;;4992638;28;20041;-32
2022/01/30 14:20:49;;;;;;;12.45;1.00;;;;;;;;;;4992379;28;20050;-32
2022/01/30 14:23:21;;;;;;;4.43;1.00;;;;;;;;;;4992406;28;20065;-32
2022/01/30 14:25:49;;;;;;;8.32;1.25;;;;;;;;;;4992361;28;20610;-32
2022/01/30 14:28:23;;;;;;;3.75;0.68;;;;;;;;;;4992371;28;20031;-32
2022/01/30 14:30:50;;;;;;;11.13;1.00;;;;;;;;;;4992400;28;20034;-32
2022/01/30 14:33:18;;;;;;;5.20;1.30;;;;;;;;;;4992263;28;20125;-32
2022/01/30 14:35:45;;;;;;;11.48;1.70;;;;;;;;;;4992191;28;20031;-32
2022/01/30 14:38:12;;;;;;;3.58;1.30;;;;;;;;;;4992322;28;20030;-32
2022/01/30 14:40:39;;;;;;;5.55;1.08;;;;;;;;;;4995637;28;20041;-32
2022/01/30 14:43:07;;;;;;;7.57;1.25;;;;;;;;;;4996101;28;20038;-32
2022/01/30 14:45:34;;;;;;;7.15;1.10;;;;;;;;;;4996074;28;20046;-32
2022/01/30 14:48:05;;;;;;;5.22;1.10;;;;;;;;;;4995599;28;20118;-32
2022/01/30 14:50:33;;;;;;;12.82;1.00;;;;;;;;;;4996060;28;20559;-32
2022/01/30 14:53:00;;;;;;;7.65;1.30;;;;;;;;;;4995192;28;20030;-32
2022/01/30 14:55:28;;;;;;;5.88;1.10;;;;;;;;;;4995730;28;20041;-32
2022/01/30 14:57:56;;;;;;;5.82;0.95;;;;;;;;;;4989318;28;20033;-33
2022/01/30 15:00:25;;;;;;;8.50;0.90;;;;;;;;;;4984843;28;20119;-32
2022/01/30 15:02:53;;;;;;;10.23;1.33;;;;;;;;;;4985605;28;20074;-32
2022/01/30 15:05:21;;;;;;;7.20;1.27;;;;;;;;;;4984575;28;20031;-32
2022/01/30 15:07:48;;;;;;;7.07;1.25;;;;;;;;;;4984517;28;20026;-32
2022/01/30 15:10:15;;;;;;;6.03;1.23;;;;;;;;;;4985956;28;20389;-32
2022/01/30 15:12:43;;;;;;;6.55;1.27;;;;;;;;;;4985516;28;20107;-33
2022/01/30 15:15:12;;;;;;;9.82;0.95;;;;;;;;;;4985258;28;20397;-33
2022/01/30 15:17:40;;;;;;;6.00;1.10;;;;;;;;;;4985482;28;20026;-32
2022/01/30 15:20:09;;;;;;;6.70;1.70;;;;;;;;;;4985688;28;20054;-32
2022/01/30 15:22:36;;;;;;;3.28;1.10;;;;;;;;;;4984124;28;20027;-30
2022/01/30 15:25:06;;;;;;;12.48;1.50;;;;;;;;;;4985177;28;20058;-32
2022/01/30 15:27:34;;;;;;;8.90;1.13;;;;;;;;;;4983685;28;20026;-32
2022/01/30 15:30:01;;;;;;;4.13;0.90;;;;;;;;;;4986636;28;20135;-32
2022/01/30 15:32:28;;;;;;;4.57;1.27;;;;;;;;;;4983961;28;20057;-32
2022/01/30 15:34:57;;;;;;;8.95;1.15;;;;;;;;;;4984880;28;20078;-32
2022/01/30 15:37:25;;;;;;;11.10;1.45;;;;;;;;;;4984206;28;20039;-33
2022/01/30 15:39:52;;;;;;;5.18;1.10;;;;;;;;;;4982576;28;20026;-33
2022/01/30 15:42:19;;;;;;;3.83;0.88;;;;;;;;;;4986494;28;20137;-34
2022/01/30 15:50:01;;;;;;;10.15;1.00;;;;;;;;;;4993688;28;20038;-34
2022/01/30 15:52:28;;;;;;;6.80;1.15;;;;;;;;;;4992838;28;20038;-33
2022/01/30 15:54:56;;;;;;;10.70;1.52;;;;;;;;;;4993699;28;20584;-33